sensor_id;sensor_type;location;lat;lon;timestamp;P1;durP1;ratioP1;P2;durP2;ratioP2
81901;SDS011;71369;50.796;3.290;2023-11-19T06:40:04;31.48;;;5.45;;
81901;SDS011;71369;50.796;3.290;2023-11-19T06:42:31;23.65;;;4.88;;
81901;SDS011;71369;50.796;3.290;2023-11-19T06:44:57;24.35;;;5.63;;
81901;SDS011;71369;50.796;3.290;2023-11-19T06:47:26;25.45;;;5.25;;
81901;SDS011;71369;50.796;3.290;2023-11-19T06:49:53;29.52;;;5.53;;
81901;SDS011;71369;50.796;3.290;2023-11-19T06:52:19;26.27;;;5.30;;
81901;SDS011;71369;50.796;3.290;2023-11-19T06:54:50;29.83;;;5.05;;
81901;SDS011;71369;50.796;3.290;2023-11-19T06:57:16;30.63;;;5.88;;
81901;SDS011;71369;50.796;3.290;2023-11-19T06:59:44;32.85;;;5.15;;
81901;SDS011;71369;50.796;3.290;2023-11-19T07:02:11;34.67;;;5.68;;
81901;SDS011;71369;50.796;3.290;2023-11-19T07:04:38;30.20;;;5.25;;
81901;SDS011;71369;50.796;3.290;2023-11-19T07:07:06;30.27;;;5.30;;
81901;SDS011;71369;50.796;3.290;2023-11-19T07:09:51;36.13;;;6.18;;
81901;SDS011;71369;50.796;3.290;2023-11-19T07:12:17;30.48;;;5.00;;
81901;SDS011;71369;50.796;3.290;2023-11-19T07:14:43;23.23;;;3.95;;
81901;SDS011;71369;50.796;3.290;2023-11-19T07:17:08;30.40;;;6.93;;
81901;SDS011;71369;50.796;3.290;2023-11-19T07:19:35;27.73;;;4.88;;
81901;SDS011;71369;50.796;3.290;2023-11-19T07:22:04;29.08;;;5.35;;
81901;SDS011;71369;50.796;3.290;2023-11-19T07:30:22;36.13;;;6.15;;
81901;SDS011;71369;50.796;3.290;2023-11-19T07:36:25;26.85;;;6.15;;
81901;SDS011;71369;50.796;3.290;2023-11-19T07:42:23;30.80;;;4.85;;
81901;SDS011;71369;50.796;3.290;2023-11-19T09:26:43;24.33;;;5.63;;
81901;SDS011;71369;50.796;3.290;2023-11-19T09:29:09;18.13;;;4.20;;
81901;SDS011;71369;50.796;3.290;2023-11-19T09:31:37;18.10;;;4.40;;
81901;SDS011;71369;50.796;3.290;2023-11-19T09:34:22;23.50;;;5.50;;
81901;SDS011;71369;50.796;3.290;2023-11-19T09:37:04;17.42;;;3.47;;
81901;SDS011;71369;50.796;3.290;2023-11-19T09:39:33;20.63;;;4.38;;
81901;SDS011;71369;50.796;3.290;2023-11-19T09:42:01;17.60;;;3.38;;
81901;SDS011;71369;50.796;3.290;2023-11-19T09:44:53;25.13;;;4.43;;
81901;SDS011;71369;50.796;3.290;2023-11-19T09:47:44;17.92;;;5.55;;
81901;SDS011;71369;50.796;3.290;2023-11-19T09:50:15;16.95;;;3.28;;
81901;SDS011;71369;50.796;3.290;2023-11-19T09:52:44;29.95;;;5.30;;
81901;SDS011;71369;50.796;3.290;2023-11-19T09:55:13;22.20;;;3.67;;
81901;SDS011;71369;50.796;3.290;2023-11-19T09:57:46;16.77;;;3.33;;
81901;SDS011;71369;50.796;3.290;2023-11-19T10:00:45;21.05;;;3.58;;
81901;SDS011;71369;50.796;3.290;2023-11-19T10:03:47;15.95;;;4.35;;
81901;SDS011;71369;50.796;3.290;2023-11-19T10:06:36;18.05;;;4.03;;
81901;SDS011;71369;50.796;3.290;2023-11-19T10:18:55;20.17;;;3.80;;
81901;SDS011;71369;50.796;3.290;2023-11-19T10:21:24;26.10;;;5.68;;
81901;SDS011;71369;50.796;3.290;2023-11-19T10:23:54;18.13;;;4.35;;
81901;SDS011;71369;50.796;3.290;2023-11-19T10:29:47;13.07;;;3.35;;
81901;SDS011;71369;50.796;3.290;2023-11-19T10:32:25;13.98;;;3.78;;
81901;SDS011;71369;50.796;3.290;2023-11-19T10:35:04;18.70;;;5.15;;
81901;SDS011;71369;50.796;3.290;2023-11-19T10:37:50;22.48;;;4.28;;
81901;SDS011;71369;50.796;3.290;2023-11-19T10:40:39;15.77;;;3.55;;
81901;SDS011;71369;50.796;3.290;2023-11-19T10:43:48;19.20;;;3.95;;
81901;SDS011;71369;50.796;3.290;2023-11-19T10:50:40;23.40;;;4.20;;
81901;SDS011;71369;50.796;3.290;2023-11-19T10:53:27;19.05;;;3.60;;
81901;SDS011;71369;50.796;3.290;2023-11-19T10:56:01;19.27;;;5.32;;
81901;SDS011;71369;50.796;3.290;2023-11-19T11:01:20;18.75;;;4.30;;
81901;SDS011;71369;50.796;3.290;2023-11-19T11:07:16;19.58;;;3.88;;
81901;SDS011;71369;50.796;3.290;2023-11-19T11:27:41;30.88;;;5.47;;
81901;SDS011;71369;50.796;3.290;2023-11-19T11:30:29;23.92;;;4.60;;
81901;SDS011;71369;50.796;3.290;2023-11-19T11:33:14;15.70;;;3.08;;
81901;SDS011;71369;50.796;3.290;2023-11-19T11:36:05;28.35;;;4.90;;
81901;SDS011;71369;50.796;3.290;2023-11-19T11:38:37;20.63;;;4.25;;
81901;SDS011;71369;50.796;3.290;2023-11-19T11:43:50;26.38;;;4.15;;
81901;SDS011;71369;50.796;3.290;2023-11-19T11:49:01;21.58;;;4.47;;
81901;SDS011;71369;50.796;3.290;2023-11-19T11:54:09;15.33;;;3.53;;
81901;SDS011;71369;50.796;3.290;2023-11-19T12:00:10;20.45;;;3.70;;
81901;SDS011;71369;50.796;3.290;2023-11-19T12:03:12;15.25;;;3.05;;
81901;SDS011;71369;50.796;3.290;2023-11-19T12:05:42;22.00;;;4.05;;
81901;SDS011;71369;50.796;3.290;2023-11-19T12:08:15;25.40;;;3.97;;
81901;SDS011;71369;50.796;3.290;2023-11-19T12:10:53;22.10;;;3.58;;
81901;SDS011;71369;50.796;3.290;2023-11-19T12:16:36;18.40;;;4.10;;
81901;SDS011;71369;50.796;3.290;2023-11-19T12:19:51;21.85;;;4.60;;
81901;SDS011;71369;50.796;3.290;2023-11-19T12:22:20;22.15;;;4.65;;
81901;SDS011;71369;50.796;3.290;2023-11-19T13:38:30;16.35;;;3.65;;
81901;SDS011;71369;50.796;3.290;2023-11-19T13:41:12;22.20;;;3.47;;
81901;SDS011;71369;50.796;3.290;2023-11-19T13:44:04;20.77;;;5.03;;
81901;SDS011;71369;50.796;3.290;2023-11-19T13:46:27;15.82;;;3.83;;
81901;SDS011;71369;50.796;3.290;2023-11-19T13:49:15;15.88;;;3.90;;
81901;SDS011;71369;50.796;3.290;2023-11-19T13:52:05;20.27;;;3.72;;
81901;SDS011;71369;50.796;3.290;2023-11-19T13:55:30;18.50;;;3.58;;
81901;SDS011;71369;50.796;3.290;2023-11-19T13:59:07;23.85;;;4.72;;
81901;SDS011;71369;50.796;3.290;2023-11-19T14:02:46;25.40;;;4.78;;
81901;SDS011;71369;50.796;3.290;2023-11-19T14:15:08;25.00;;;4.20;;
81901;SDS011;71369;50.796;3.290;2023-11-19T14:18:00;19.65;;;4.20;;
81901;SDS011;71369;50.796;3.290;2023-11-19T14:23:31;21.98;;;4.32;;
81901;SDS011;71369;50.796;3.290;2023-11-19T14:25:57;17.10;;;4.93;;
81901;SDS011;71369;50.796;3.290;2023-11-19T14:28:22;23.42;;;5.00;;
81901;SDS011;71369;50.796;3.290;2023-11-19T14:30:50;21.45;;;4.53;;
81901;SDS011;71369;50.796;3.290;2023-11-19T14:35:47;23.15;;;5.13;;
81901;SDS011;71369;50.796;3.290;2023-11-19T14:38:14;18.15;;;4.07;;
81901;SDS011;71369;50.796;3.290;2023-11-19T14:40:40;23.63;;;4.18;;
81901;SDS011;71369;50.796;3.290;2023-11-19T14:43:07;26.50;;;4.80;;
81901;SDS011;71369;50.796;3.290;2023-11-19T14:45:35;20.95;;;3.85;;
81901;SDS011;71369;50.796;3.290;2023-11-19T14:48:01;21.65;;;3.50;;
81901;SDS011;71369;50.796;3.290;2023-11-19T14:50:27;19.70;;;3.88;;
81901;SDS011;71369;50.796;3.290;2023-11-19T14:53:02;18.88;;;3.30;;
81901;SDS011;71369;50.796;3.290;2023-11-19T14:55:29;20.23;;;4.55;;
81901;SDS011;71369;50.796;3.290;2023-11-19T14:57:55;16.65;;;3.53;;
81901;SDS011;71369;50.796;3.290;2023-11-19T15:00:22;21.75;;;3.42;;
81901;SDS011;71369;50.796;3.290;2023-11-19T15:02:52;17.88;;;3.45;;
81901;SDS011;71369;50.796;3.290;2023-11-19T15:05:18;16.35;;;3.80;;
81901;SDS011;71369;50.796;3.290;2023-11-19T15:07:47;17.85;;;3.78;;
81901;SDS011;71369;50.796;3.290;2023-11-19T15:10:13;15.38;;;2.78;;
81901;SDS011;71369;50.796;3.290;2023-11-19T15:12:44;14.15;;;2.70;;
81901;SDS011;71369;50.796;3.290;2023-11-19T15:15:39;15.90;;;3.13;;
81901;SDS011;71369;50.796;3.290;2023-11-19T15:18:18;12.43;;;3.53;;
81901;SDS011;71369;50.796;3.290;2023-11-19T15:20:46;15.57;;;3.42;;
81901;SDS011;71369;50.796;3.290;2023-11-19T15:23:37;22.33;;;3.53;;
81901;SDS011;71369;50.796;3.290;2023-11-19T15:26:06;21.42;;;4.03;;
81901;SDS011;71369;50.796;3.290;2023-11-19T15:28:35;16.17;;;3.10;;
81901;SDS011;71369;50.796;3.290;2023-11-19T15:31:01;23.20;;;3.40;;
81901;SDS011;71369;50.796;3.290;2023-11-19T15:33:36;18.80;;;3.22;;
81901;SDS011;71369;50.796;3.290;2023-11-19T15:36:05;19.60;;;4.03;;
81901;SDS011;71369;50.796;3.290;2023-11-19T15:38:38;17.80;;;4.32;;
81901;SDS011;71369;50.796;3.290;2023-11-19T15:41:42;23.27;;;4.13;;
81901;SDS011;71369;50.796;3.290;2023-11-19T15:45:00;16.42;;;4.03;;
81901;SDS011;71369;50.796;3.290;2023-11-19T15:53:52;14.23;;;3.72;;
81901;SDS011;71369;50.796;3.290;2023-11-19T15:56:41;18.05;;;3.63;;
81901;SDS011;71369;50.796;3.290;2023-11-19T15:59:06;25.02;;;4.85;;
81901;SDS011;71369;50.796;3.290;2023-11-19T16:01:33;14.55;;;2.63;;
81901;SDS011;71369;50.796;3.290;2023-11-19T16:03:59;17.23;;;3.17;;
81901;SDS011;71369;50.796;3.290;2023-11-19T16:06:24;16.38;;;5.55;;
81901;SDS011;71369;50.796;3.290;2023-11-19T16:08:53;17.98;;;3.30;;
81901;SDS011;71369;50.796;3.290;2023-11-19T16:11:27;23.10;;;3.67;;
81901;SDS011;71369;50.796;3.290;2023-11-19T16:16:52;13.43;;;3.55;;
81901;SDS011;71369;50.796;3.290;2023-11-19T16:19:19;10.38;;;2.85;;
81901;SDS011;71369;50.796;3.290;2023-11-19T16:21:49;15.55;;;3.63;;
81901;SDS011;71369;50.796;3.290;2023-11-19T16:24:24;13.90;;;3.15;;
81901;SDS011;71369;50.796;3.290;2023-11-19T16:26:50;16.05;;;3.33;;
81901;SDS011;71369;50.796;3.290;2023-11-19T16:29:16;21.40;;;3.47;;
81901;SDS011;71369;50.796;3.290;2023-11-19T16:31:45;14.20;;;3.17;;
81901;SDS011;71369;50.796;3.290;2023-11-19T16:34:18;11.80;;;3.42;;
81901;SDS011;71369;50.796;3.290;2023-11-19T16:36:55;9.77;;;3.03;;
81901;SDS011;71369;50.796;3.290;2023-11-19T16:39:23;16.80;;;2.90;;
81901;SDS011;71369;50.796;3.290;2023-11-19T16:41:51;15.07;;;3.15;;
81901;SDS011;71369;50.796;3.290;2023-11-19T16:44:23;14.20;;;2.63;;
81901;SDS011;71369;50.796;3.290;2023-11-19T16:46:51;14.32;;;3.45;;
81901;SDS011;71369;50.796;3.290;2023-11-19T16:49:25;18.30;;;3.33;;
81901;SDS011;71369;50.796;3.290;2023-11-19T16:51:52;19.30;;;3.75;;
81901;SDS011;71369;50.796;3.290;2023-11-19T16:54:18;17.08;;;3.50;;
81901;SDS011;71369;50.796;3.290;2023-11-19T16:56:44;16.08;;;3.38;;
81901;SDS011;71369;50.796;3.290;2023-11-19T16:59:10;14.27;;;3.42;;
81901;SDS011;71369;50.796;3.290;2023-11-19T17:01:36;12.02;;;2.75;;
81901;SDS011;71369;50.796;3.290;2023-11-19T17:04:03;11.95;;;5.30;;
81901;SDS011;71369;50.796;3.290;2023-11-19T17:06:36;12.25;;;3.47;;
81901;SDS011;71369;50.796;3.290;2023-11-19T17:09:04;12.82;;;3.03;;
81901;SDS011;71369;50.796;3.290;2023-11-19T17:11:30;9.88;;;2.80;;
81901;SDS011;71369;50.796;3.290;2023-11-19T17:13:56;17.50;;;3.78;;
81901;SDS011;71369;50.796;3.290;2023-11-19T17:16:22;15.57;;;3.38;;
81901;SDS011;71369;50.796;3.290;2023-11-19T17:18:48;14.23;;;3.42;;
81901;SDS011;71369;50.796;3.290;2023-11-19T17:21:14;9.82;;;2.85;;
81901;SDS011;71369;50.796;3.290;2023-11-19T17:23:39;9.77;;;3.30;;
81901;SDS011;71369;50.796;3.290;2023-11-19T17:26:06;10.50;;;2.53;;
81901;SDS011;71369;50.796;3.290;2023-11-19T17:28:31;11.38;;;2.70;;
81901;SDS011;71369;50.796;3.290;2023-11-19T17:31:00;11.02;;;4.03;;
81901;SDS011;71369;50.796;3.290;2023-11-19T17:33:26;14.23;;;3.20;;
81901;SDS011;71369;50.796;3.290;2023-11-19T17:35:52;15.75;;;3.30;;
81901;SDS011;71369;50.796;3.290;2023-11-19T17:38:18;11.75;;;3.47;;
81901;SDS011;71369;50.796;3.290;2023-11-19T17:40:54;14.40;;;3.05;;
81901;SDS011;71369;50.796;3.290;2023-11-19T17:43:22;13.43;;;3.20;;
81901;SDS011;71369;50.796;3.290;2023-11-19T17:45:51;15.10;;;2.67;;
81901;SDS011;71369;50.796;3.290;2023-11-19T17:48:20;15.70;;;3.60;;
81901;SDS011;71369;50.796;3.290;2023-11-19T17:50:54;11.65;;;2.97;;
81901;SDS011;71369;50.796;3.290;2023-11-19T17:53:30;10.63;;;3.63;;
81901;SDS011;71369;50.796;3.290;2023-11-19T17:55:57;12.50;;;2.58;;
81901;SDS011;71369;50.796;3.290;2023-11-19T17:58:23;14.40;;;3.40;;
81901;SDS011;71369;50.796;3.290;2023-11-19T18:00:51;14.68;;;2.85;;
81901;SDS011;71369;50.796;3.290;2023-11-19T18:06:25;9.70;;;2.65;;
81901;SDS011;71369;50.796;3.290;2023-11-19T18:08:50;10.07;;;3.00;;
81901;SDS011;71369;50.796;3.290;2023-11-19T18:11:25;16.48;;;3.85;;
81901;SDS011;71369;50.796;3.290;2023-11-19T18:13:54;14.82;;;3.72;;
81901;SDS011;71369;50.796;3.290;2023-11-19T18:16:20;12.70;;;3.10;;
81901;SDS011;71369;50.796;3.290;2023-11-19T18:18:46;14.20;;;3.22;;
81901;SDS011;71369;50.796;3.290;2023-11-19T18:21:12;17.23;;;3.22;;
81901;SDS011;71369;50.796;3.290;2023-11-19T18:23:38;19.05;;;2.92;;
81901;SDS011;71369;50.796;3.290;2023-11-19T18:26:04;7.68;;;2.38;;
81901;SDS011;71369;50.796;3.290;2023-11-19T18:28:30;15.57;;;4.00;;
81901;SDS011;71369;50.796;3.290;2023-11-19T18:30:56;11.55;;;3.25;;
81901;SDS011;71369;50.796;3.290;2023-11-19T18:33:22;15.68;;;2.88;;
81901;SDS011;71369;50.796;3.290;2023-11-19T18:35:48;12.85;;;3.28;;
81901;SDS011;71369;50.796;3.290;2023-11-19T18:38:15;18.58;;;3.92;;
81901;SDS011;71369;50.796;3.290;2023-11-19T18:40:41;11.15;;;3.10;;
81901;SDS011;71369;50.796;3.290;2023-11-19T18:43:14;16.58;;;3.08;;
81901;SDS011;71369;50.796;3.290;2023-11-19T18:45:48;14.50;;;3.20;;
81901;SDS011;71369;50.796;3.290;2023-11-19T18:48:15;15.07;;;3.33;;
81901;SDS011;71369;50.796;3.290;2023-11-19T18:50:43;8.80;;;2.90;;
81901;SDS011;71369;50.796;3.290;2023-11-19T18:53:26;10.88;;;3.17;;
81901;SDS011;71369;50.796;3.290;2023-11-19T18:55:52;14.63;;;3.35;;
81901;SDS011;71369;50.796;3.290;2023-11-19T18:58:18;14.60;;;3.97;;
81901;SDS011;71369;50.796;3.290;2023-11-19T19:00:43;11.02;;;2.33;;
81901;SDS011;71369;50.796;3.290;2023-11-19T19:03:12;16.33;;;3.00;;
81901;SDS011;71369;50.796;3.290;2023-11-19T19:05:40;9.20;;;2.70;;
81901;SDS011;71369;50.796;3.290;2023-11-19T19:08:20;13.77;;;3.03;;
81901;SDS011;71369;50.796;3.290;2023-11-19T19:11:08;13.57;;;2.80;;
81901;SDS011;71369;50.796;3.290;2023-11-19T19:13:34;15.30;;;3.10;;
81901;SDS011;71369;50.796;3.290;2023-11-19T19:16:07;15.20;;;3.92;;
81901;SDS011;71369;50.796;3.290;2023-11-19T19:18:33;16.00;;;2.80;;
81901;SDS011;71369;50.796;3.290;2023-11-19T19:21:00;12.70;;;2.95;;
81901;SDS011;71369;50.796;3.290;2023-11-19T19:23:26;14.73;;;3.15;;
81901;SDS011;71369;50.796;3.290;2023-11-19T19:25:52;12.88;;;4.57;;
81901;SDS011;71369;50.796;3.290;2023-11-19T19:28:18;17.05;;;3.97;;
81901;SDS011;71369;50.796;3.290;2023-11-19T19:30:44;14.63;;;3.70;;
81901;SDS011;71369;50.796;3.290;2023-11-19T19:33:10;10.00;;;2.90;;
81901;SDS011;71369;50.796;3.290;2023-11-19T19:35:36;17.30;;;3.90;;
81901;SDS011;71369;50.796;3.290;2023-11-19T19:38:02;14.57;;;3.28;;
